Time;durP1;ratioP1;P1;durP2;ratioP2;P2;SDS_P1;SDS_P2;PMS_P1;PMS_P2;Temp;Humidity;BMP_temperature;BMP_pressure;BME280_temperature;BME280_humidity;BME280_pressure;Samples;Min_cycle;Max_cycle;Signal;HPM_P1;HPM_P2
2023/09/23 00:00:58;;;;;;;0.52;0.40;;;;;;;10.12;100.00;96813.41;5005614;28;20083;-62
2023/09/23 00:03:25;;;;;;;1.10;0.68;;;;;;;10.08;100.00;96820.44;5005117;28;20041;-62
2023/09/23 00:05:52;;;;;;;1.42;0.60;;;;;;;10.10;100.00;96834.53;5005043;28;20045;-63
2023/09/23 00:08:19;;;;;;;1.25;0.60;;;;;;;10.06;100.00;96834.22;5006165;28;20504;-62
2023/09/23 00:10:46;;;;;;;1.08;0.52;;;;;;;9.91;100.00;96842.25;5007654;28;20528;-62
2023/09/23 00:13:12;;;;;;;1.30;0.40;;;;;;;9.76;100.00;96844.59;5005062;28;20064;-62
2023/09/23 00:15:41;;;;;;;2.28;0.50;;;;;;;9.52;100.00;96846.84;5005429;28;20136;-63
2023/09/23 00:18:08;;;;;;;1.52;0.65;;;;;;;9.31;100.00;96856.66;5006072;28;20038;-63
2023/09/23 00:20:36;;;;;;;1.50;0.55;;;;;;;9.29;100.00;96865.00;5004951;28;20611;-63
2023/09/23 00:23:05;;;;;;;1.00;0.30;;;;;;;9.17;100.00;96857.06;5005157;28;20038;-63
2023/09/23 00:25:33;;;;;;;0.80;0.40;;;;;;;9.14;100.00;96857.56;5004597;28;20034;-63
2023/09/23 00:27:59;;;;;;;1.20;0.70;;;;;;;8.87;100.00;96855.69;5005501;28;20100;-63
2023/09/23 00:30:26;;;;;;;1.92;0.57;;;;;;;8.76;100.00;96862.03;5004332;28;20038;-62
2023/09/23 00:32:53;;;;;;;0.95;0.55;;;;;;;8.95;100.00;96860.63;5004157;28;20123;-63
2023/09/23 00:35:20;;;;;;;1.27;0.57;;;;;;;9.17;100.00;96850.84;5005491;28;20034;-63
2023/09/23 00:37:51;;;;;;;1.08;0.50;;;;;;;9.40;100.00;96846.19;5002405;28;20041;-62
2023/09/23 00:40:24;;;;;;;1.08;0.30;;;;;;;9.55;100.00;96837.41;4987950;28;20501;-62
2023/09/23 00:42:51;;;;;;;0.80;0.50;;;;;;;9.53;100.00;96844.94;5006051;28;20042;-62
2023/09/23 00:45:19;;;;;;;1.58;0.63;;;;;;;9.60;100.00;96840.97;5004389;28;20038;-62
2023/09/23 00:47:46;;;;;;;0.70;0.40;;;;;;;9.59;100.00;96850.13;4990788;28;20141;-62
2023/09/23 00:50:19;;;;;;;1.73;0.43;;;;;;;9.53;100.00;96851.16;5004540;28;20034;-62
2023/09/23 00:52:51;;;;;;;1.05;0.50;;;;;;;9.28;100.00;96852.56;5003711;28;20633;-62
2023/09/23 00:55:24;;;;;;;1.50;0.40;;;;;;;9.09;100.00;96846.72;5002932;28;20042;-62
2023/09/23 00:57:55;;;;;;;1.17;0.60;;;;;;;9.03;100.00;96847.75;5016911;28;20050;-61
2023/09/23 01:00:27;;;;;;;1.30;0.40;;;;;;;8.76;100.00;96852.06;5000824;28;20497;-62
2023/09/23 01:02:58;;;;;;;1.95;0.55;;;;;;;8.51;100.00;96868.75;5004186;28;20041;-62
2023/09/23 01:05:29;;;;;;;1.65;0.52;;;;;;;8.42;100.00;96869.19;5005123;28;20054;-63
2023/09/23 01:08:11;;;;;;;1.73;0.82;;;;;;;8.44;100.00;96882.44;5002598;28;20042;-62
2023/09/23 01:10:39;;;;;;;2.75;0.73;;;;;;;8.30;100.00;96874.69;5002925;28;20261;-63
2023/09/23 01:13:08;;;;;;;3.78;0.57;;;;;;;8.22;100.00;96874.31;4986412;28;20460;-63
2023/09/23 01:15:46;;;;;;;1.17;0.70;;;;;;;8.13;100.00;96872.03;5003783;28;20042;-63
2023/09/23 01:18:13;;;;;;;1.90;1.10;;;;;;;8.11;100.00;96894.94;5004050;28;20136;-62
2023/09/23 01:20:47;;;;;;;1.15;0.52;;;;;;;7.99;100.00;96879.66;5003816;28;20536;-63
2023/09/23 01:23:14;;;;;;;4.43;0.90;;;;;;;7.99;100.00;96887.75;4986055;28;20041;-62
2023/09/23 01:25:41;;;;;;;1.08;0.60;;;;;;;7.97;100.00;96891.75;4986085;28;20042;-62
2023/09/23 01:28:11;;;;;;;1.45;0.60;;;;;;;7.83;100.00;96891.28;5004072;28;20663;-62
2023/09/23 01:30:39;;;;;;;1.92;0.60;;;;;;;7.73;100.00;96891.91;5002647;28;20568;-62
2023/09/23 01:33:07;;;;;;;2.03;0.68;;;;;;;7.67;100.00;96899.94;4980229;28;20052;-62
2023/09/23 01:35:34;;;;;;;1.95;0.65;;;;;;;7.57;100.00;96912.41;4989000;28;20142;-62
2023/09/23 01:38:02;;;;;;;1.65;0.75;;;;;;;7.54;100.00;96922.63;5003828;28;20045;-62
2023/09/23 01:40:33;;;;;;;1.52;0.80;;;;;;;7.61;100.00;96940.50;5002698;28;20041;-62
2023/09/23 01:43:01;;;;;;;1.63;0.73;;;;;;;7.59;100.00;96927.28;5002072;28;20034;-62
2023/09/23 01:45:28;;;;;;;2.25;0.70;;;;;;;7.52;100.00;96935.53;4985436;28;20745;-62
2023/09/23 01:47:56;;;;;;;1.48;0.60;;;;;;;7.47;100.00;96930.03;5003174;28;20041;-62
2023/09/23 01:50:25;;;;;;;2.60;0.65;;;;;;;7.41;100.00;96942.59;4987334;28;20654;-62
2023/09/23 01:52:51;;;;;;;4.13;0.70;;;;;;;7.39;100.00;96946.59;4999285;28;20064;-63
2023/09/23 01:55:18;;;;;;;2.65;0.75;;;;;;;7.45;100.00;96975.28;5003480;28;20070;-62
2023/09/23 01:57:47;;;;;;;1.58;0.70;;;;;;;7.38;100.00;96964.63;4985356;28;20041;-63
2023/09/23 02:00:21;;;;;;;1.27;0.73;;;;;;;7.35;100.00;96965.13;4985485;28;20034;-63
2023/09/23 02:02:49;;;;;;;1.42;0.68;;;;;;;7.30;100.00;96956.97;5000801;28;20042;-62
2023/09/23 02:05:18;;;;;;;1.17;0.60;;;;;;;7.40;100.00;96975.16;4985753;28;20045;-63
2023/09/23 02:07:47;;;;;;;1.40;0.70;;;;;;;7.31;100.00;96950.50;5002487;28;20422;-63
2023/09/23 02:10:15;;;;;;;0.80;0.50;;;;;;;7.27;100.00;96935.91;5003022;28;20142;-62
2023/09/23 02:12:42;;;;;;;2.17;0.77;;;;;;;7.35;100.00;96951.66;4984076;28;20081;-63
2023/09/23 02:15:15;;;;;;;3.38;0.80;;;;;;;7.18;100.00;96938.16;5001379;28;20488;-63
2023/09/23 02:17:43;;;;;;;2.67;0.70;;;;;;;7.12;100.00;96952.59;4985459;28;20716;-62
2023/09/23 02:20:21;;;;;;;3.90;0.70;;;;;;;7.04;100.00;96951.06;5003192;28;20050;-63
2023/09/23 02:22:53;;;;;;;1.80;0.80;;;;;;;7.08;100.00;96954.91;4986887;28;20042;-62
2023/09/23 02:25:24;;;;;;;2.88;0.98;;;;;;;7.26;100.00;96978.16;5003152;28;20046;-62
2023/09/23 02:27:51;;;;;;;0.93;0.50;;;;;;;7.41;100.00;96957.97;4999841;28;20041;-63
2023/09/23 02:30:18;;;;;;;0.95;0.60;;;;;;;7.56;100.00;96954.72;5003118;28;20034;-62
2023/09/23 02:32:46;;;;;;;1.13;0.52;;;;;;;7.72;100.00;96944.19;5001340;28;20050;-62
2023/09/23 02:35:15;;;;;;;2.83;0.98;;;;;;;7.78;100.00;96927.84;5002577;28;20554;-62
2023/09/23 02:37:44;;;;;;;0.85;0.57;;;;;;;7.89;100.00;96928.03;5002723;28;20088;-62
2023/09/23 02:40:12;;;;;;;1.92;1.13;;;;;;;7.97;100.00;96913.31;5002625;28;20677;-62
2023/09/23 02:42:43;;;;;;;0.98;0.60;;;;;;;7.74;100.00;96915.94;4984817;28;20041;-63
2023/09/23 02:45:13;;;;;;;2.72;0.60;;;;;;;7.59;100.00;96934.56;5001926;28;20050;-61
2023/09/23 02:47:43;;;;;;;1.83;0.70;;;;;;;7.49;100.00;96943.28;5000518;28;20556;-63
2023/09/23 02:50:13;;;;;;;2.15;0.90;;;;;;;7.46;100.00;96957.22;4992479;28;20048;-62
2023/09/23 02:52:41;;;;;;;1.08;0.60;;;;;;;7.49;100.00;96972.91;4985554;28;20043;-62
2023/09/23 02:55:12;;;;;;;1.55;0.52;;;;;;;7.64;100.00;96994.75;5006325;28;20543;-61
2023/09/23 02:57:41;;;;;;;3.13;0.75;;;;;;;7.73;100.00;97002.41;5005774;28;20073;-63
2023/09/23 03:00:21;;;;;;;2.97;0.70;;;;;;;7.76;100.00;96989.28;5006409;28;20038;-62
2023/09/23 03:02:54;;;;;;;0.82;0.50;;;;;;;7.87;100.00;97017.22;4987359;28;20783;-61
2023/09/23 03:05:28;;;;;;;2.53;0.60;;;;;;;7.54;100.00;96978.38;5006518;28;20046;-62
2023/09/23 03:07:59;;;;;;;1.10;0.60;;;;;;;7.39;100.00;96987.84;5003266;28;20046;-63
2023/09/23 03:10:33;;;;;;;2.70;0.70;;;;;;;7.50;100.00;97021.16;4987426;28;20046;-62
2023/09/23 03:13:05;;;;;;;7.25;0.80;;;;;;;7.12;100.00;96991.06;5005393;28;20041;-63
2023/09/23 03:15:48;;;;;;;1.55;0.70;;;;;;;7.02;100.00;97015.09;5005738;28;20046;-63
2023/09/23 03:18:15;;;;;;;1.42;0.80;;;;;;;6.77;100.00;97005.44;5005943;28;20115;-63
2023/09/23 03:20:43;;;;;;;4.15;0.77;;;;;;;6.59;100.00;97017.97;5006101;28;20045;-62
2023/09/23 03:23:10;;;;;;;5.15;0.70;;;;;;;6.61;100.00;97036.56;5005524;28;20131;-61
2023/09/23 03:25:48;;;;;;;1.52;0.90;;;;;;;6.51;100.00;97039.84;4988145;28;20061;-63
2023/09/23 03:28:17;;;;;;;2.65;0.70;;;;;;;6.62;100.00;97043.59;4988473;28;20045;-62
2023/09/23 03:30:49;;;;;;;4.60;1.00;;;;;;;6.56;100.00;97045.34;5004410;28;20042;-61
2023/09/23 03:33:20;;;;;;;2.72;0.98;;;;;;;6.57;100.00;97055.06;5003184;28;20543;-62
2023/09/23 03:35:49;;;;;;;3.83;0.80;;;;;;;6.50;100.00;97051.66;5020367;28;20108;-63
2023/09/23 03:38:16;;;;;;;3.20;1.00;;;;;;;6.50;100.00;97057.03;4988008;28;20038;-61
2023/09/23 03:40:53;;;;;;;4.15;1.05;;;;;;;6.49;100.00;97052.72;4989448;28;20034;-63
2023/09/23 03:43:21;;;;;;;2.55;0.90;;;;;;;6.49;100.00;97071.56;5002183;28;20576;-62
2023/09/23 03:45:48;;;;;;;5.68;1.20;;;;;;;6.53;100.00;97078.09;4994638;28;20045;-63
2023/09/23 03:48:15;;;;;;;1.83;1.00;;;;;;;6.56;100.00;97066.84;4985837;28;20352;-63
2023/09/23 03:50:42;;;;;;;2.10;1.17;;;;;;;6.54;100.00;97074.34;4987299;28;20044;-63
2023/09/23 03:53:11;;;;;;;2.97;0.90;;;;;;;6.44;100.00;97061.47;4989253;28;20053;-63
2023/09/23 03:55:38;;;;;;;3.67;1.02;;;;;;;6.40;100.00;97075.59;4997663;28;20050;-63
2023/09/23 03:58:05;;;;;;;4.13;1.40;;;;;;;6.50;100.00;97100.06;4987163;28;20037;-62
2023/09/23 04:00:34;;;;;;;2.65;0.90;;;;;;;6.52;100.00;97087.19;5005568;28;20034;-62
2023/09/23 04:03:00;;;;;;;4.13;1.48;;;;;;;6.68;100.00;97109.09;5004965;28;20515;-61
2023/09/23 04:05:30;;;;;;;2.42;1.10;;;;;;;6.85;100.00;97112.72;5004872;28;20069;-62
2023/09/23 04:07:58;;;;;;;2.42;1.00;;;;;;;6.76;100.00;97069.22;5005921;28;20045;-62
2023/09/23 04:10:25;;;;;;;2.55;1.10;;;;;;;6.72;100.00;97062.66;5004307;28;20041;-63
2023/09/23 04:12:54;;;;;;;2.10;0.93;;;;;;;6.70;100.00;97058.53;5004635;28;20048;-62
2023/09/23 04:15:22;;;;;;;3.38;1.20;;;;;;;6.86;100.00;97084.75;5005008;28;20409;-62
2023/09/23 04:17:48;;;;;;;3.10;1.10;;;;;;;6.81;100.00;97062.31;5005374;28;20049;-62
2023/09/23 04:20:15;;;;;;;1.60;0.80;;;;;;;6.92;100.00;97068.75;5004758;28;20771;-62
2023/09/23 04:22:42;;;;;;;3.15;0.93;;;;;;;7.06;100.00;97069.28;5004547;28;20428;-63
2023/09/23 04:25:10;;;;;;;3.83;1.23;;;;;;;7.08;100.00;97056.41;5004989;28;20041;-61
2023/09/23 04:27:38;;;;;;;1.40;0.90;;;;;;;7.17;100.00;97065.75;5001315;28;20120;-61
2023/09/23 04:30:09;;;;;;;2.90;0.70;;;;;;;7.30;100.00;97070.06;5004815;28;20108;-62
2023/09/23 04:32:36;;;;;;;1.77;0.88;;;;;;;7.38;100.00;97053.50;5003936;28;20037;-62
2023/09/23 04:35:04;;;;;;;5.60;1.02;;;;;;;7.19;100.00;97050.16;5005317;28;20049;-61
2023/09/23 04:37:33;;;;;;;2.50;1.20;;;;;;;7.12;100.00;97053.00;5004711;28;20614;-63
2023/09/23 04:40:00;;;;;;;2.25;1.05;;;;;;;7.13;100.00;97069.97;5004217;28;20038;-63
2023/09/23 04:42:26;;;;;;;2.83;1.27;;;;;;;7.17;100.00;97065.75;5004543;28;20120;-63
2023/09/23 04:44:53;;;;;;;2.47;1.08;;;;;;;7.22;100.00;97071.25;5004642;28;20092;-62
2023/09/23 04:47:19;;;;;;;1.80;0.90;;;;;;;7.21;100.00;97074.16;5004630;28;20668;-62
2023/09/23 04:49:46;;;;;;;3.47;0.98;;;;;;;7.26;100.00;97075.09;5004403;28;20058;-63
2023/09/23 04:52:15;;;;;;;2.05;1.20;;;;;;;7.31;100.00;97078.97;5003155;28;20413;-63
2023/09/23 04:54:42;;;;;;;1.30;0.77;;;;;;;7.50;100.00;97071.53;5003816;28;20072;-62
2023/09/23 04:57:09;;;;;;;2.45;0.85;;;;;;;7.57;100.00;97074.06;5004089;28;20046;-63
2023/09/23 04:59:35;;;;;;;2.80;1.00;;;;;;;7.51;100.00;97065.91;5003455;28;20038;-62
2023/09/23 05:02:03;;;;;;;2.47;0.70;;;;;;;7.45;100.00;97069.56;5004558;28;20045;-62
2023/09/23 05:04:30;;;;;;;1.15;0.80;;;;;;;7.64;100.00;97077.47;5002939;28;20169;-61
2023/09/23 05:06:56;;;;;;;5.45;1.08;;;;;;;7.67;100.00;97076.97;5002963;28;20403;-62
2023/09/23 05:09:26;;;;;;;2.45;0.93;;;;;;;7.71;100.00;97080.00;5003861;28;20050;-62
2023/09/23 05:11:53;;;;;;;1.17;0.60;;;;;;;7.88;100.00;97077.34;5002394;28;20599;-62
2023/09/23 05:14:20;;;;;;;0.63;0.50;;;;;;;7.94;100.00;97076.38;5003482;28;20046;-62
2023/09/23 05:16:51;;;;;;;2.38;0.90;;;;;;;7.97;100.00;97080.47;5002757;28;20103;-62
2023/09/23 05:19:21;;;;;;;3.10;1.08;;;;;;;7.89;100.00;97077.09;5003377;28;20076;-62
2023/09/23 05:21:49;;;;;;;2.17;0.80;;;;;;;7.93;100.00;97083.66;5002924;28;20038;-62
2023/09/23 05:24:17;;;;;;;2.95;1.10;;;;;;;8.01;100.00;97085.16;5003879;28;20074;-62
2023/09/23 05:26:43;;;;;;;2.00;0.70;;;;;;;7.90;100.00;97080.63;5006330;28;20052;-62
2023/09/23 05:29:10;;;;;;;2.47;0.82;;;;;;;7.90;100.00;97086.84;5003119;28;20057;-62
2023/09/23 05:31:37;;;;;;;1.83;0.88;;;;;;;7.97;100.00;97088.56;5002224;28;20040;-63
2023/09/23 05:34:04;;;;;;;2.03;0.80;;;;;;;7.99;100.00;97092.66;5003270;28;20046;-63
2023/09/23 05:36:31;;;;;;;2.17;0.80;;;;;;;7.99;100.00;97105.34;5003219;28;20045;-62
2023/09/23 05:38:59;;;;;;;1.00;0.65;;;;;;;7.99;100.00;97111.53;5002959;28;20048;-62
2023/09/23 05:41:25;;;;;;;1.65;0.75;;;;;;;7.86;100.00;97115.34;5002281;28;20042;-63
2023/09/23 05:43:52;;;;;;;2.20;1.02;;;;;;;7.78;100.00;97113.03;5003312;28;20042;-63
2023/09/23 05:46:19;;;;;;;1.45;0.80;;;;;;;7.84;100.00;97120.16;5003045;28;20033;-62
2023/09/23 05:48:48;;;;;;;1.60;0.70;;;;;;;7.90;100.00;97110.28;5003265;28;20461;-63
2023/09/23 05:51:15;;;;;;;1.52;0.88;;;;;;;8.05;100.00;97115.97;5002577;28;20046;-62
2023/09/23 05:53:42;;;;;;;4.03;1.13;;;;;;;8.22;100.00;97117.06;5002346;28;20173;-62
2023/09/23 05:56:09;;;;;;;2.13;1.05;;;;;;;8.27;100.00;97114.44;5003105;28;20045;-63
2023/09/23 05:58:36;;;;;;;2.80;1.05;;;;;;;8.27;100.00;97126.06;5003060;28;20046;-62
2023/09/23 06:01:02;;;;;;;3.42;1.10;;;;;;;8.36;100.00;97125.66;5002836;28;20923;-61
2023/09/23 06:03:29;;;;;;;2.17;1.60;;;;;;;8.41;100.00;97136.53;5002032;28;20116;-62
2023/09/23 06:05:56;;;;;;;1.90;0.95;;;;;;;8.53;100.00;97144.56;5003701;28;20162;-62
2023/09/23 06:08:22;;;;;;;1.40;0.82;;;;;;;8.51;100.00;97141.28;5002496;28;20100;-63
2023/09/23 06:10:50;;;;;;;2.08;1.10;;;;;;;8.51;100.00;97154.78;5002230;28;20510;-61
2023/09/23 06:13:16;;;;;;;1.20;0.75;;;;;;;8.56;100.00;97152.19;5002733;28;20042;-62
2023/09/23 06:15:43;;;;;;;1.92;1.05;;;;;;;8.71;100.00;97160.53;5002905;28;20090;-62
2023/09/23 06:18:09;;;;;;;2.58;0.88;;;;;;;8.76;100.00;97164.38;5002634;28;20116;-63
2023/09/23 06:20:37;;;;;;;4.13;0.85;;;;;;;8.83;100.00;97173.13;5001224;28;20065;-62
2023/09/23 06:23:03;;;;;;;2.10;0.82;;;;;;;8.83;100.00;97170.44;5002811;28;20042;-61
2023/09/23 06:25:30;;;;;;;1.55;0.55;;;;;;;8.93;100.00;97177.88;5002384;28;20037;-63
2023/09/23 06:27:57;;;;;;;2.33;1.10;;;;;;;8.98;100.00;97184.19;5005116;28;20121;-61
2023/09/23 06:30:23;;;;;;;3.50;0.82;;;;;;;9.03;100.00;97188.84;5006188;28;20080;-62
2023/09/23 06:32:50;;;;;;;2.75;1.20;;;;;;;9.00;100.00;97189.34;5006194;28;20088;-63
2023/09/23 06:35:16;;;;;;;2.20;1.13;;;;;;;9.02;100.00;97189.91;5005848;28;20115;-62
2023/09/23 06:37:44;;;;;;;2.95;1.15;;;;;;;9.05;100.00;97202.09;5006686;28;20048;-62
2023/09/23 06:40:10;;;;;;;1.95;1.20;;;;;;;9.11;100.00;97201.13;5006471;28;20053;-62
2023/09/23 06:42:37;;;;;;;2.00;1.00;;;;;;;9.00;100.00;97208.25;5004381;28;20528;-64
2023/09/23 06:45:09;;;;;;;3.33;1.40;;;;;;;9.06;100.00;97209.13;5006241;28;20065;-63
2023/09/23 06:47:36;;;;;;;2.55;1.23;;;;;;;9.04;100.00;97209.41;5010326;28;20038;-63
2023/09/23 06:50:04;;;;;;;3.28;1.23;;;;;;;9.09;100.00;97211.34;5006434;28;20061;-63
2023/09/23 06:52:31;;;;;;;3.97;1.35;;;;;;;9.14;100.00;97213.31;5005037;28;20033;-64
2023/09/23 06:54:59;;;;;;;3.33;1.20;;;;;;;9.22;100.00;97212.91;5006279;28;20108;-63
2023/09/23 06:57:26;;;;;;;1.73;0.90;;;;;;;9.27;100.00;97220.25;5003331;28;20052;-63
2023/09/23 06:59:52;;;;;;;2.72;0.90;;;;;;;9.24;100.00;97217.00;5006050;28;20629;-64
2023/09/23 07:02:19;;;;;;;3.22;1.10;;;;;;;9.23;100.00;97211.84;5005625;28;20038;-64
2023/09/23 07:04:47;;;;;;;3.60;0.82;;;;;;;9.25;100.00;97215.09;5005912;28;20104;-64
2023/09/23 07:07:14;;;;;;;2.22;0.90;;;;;;;9.34;100.00;97210.94;5005880;28;20061;-63
2023/09/23 07:09:40;;;;;;;3.33;0.80;;;;;;;9.44;100.00;97210.22;5006059;28;20042;-63
2023/09/23 07:12:09;;;;;;;4.38;1.00;;;;;;;9.49;100.00;97204.91;5005806;28;20053;-63
2023/09/23 07:14:35;;;;;;;2.55;0.90;;;;;;;9.60;100.00;97208.59;5004966;28;20397;-63
2023/09/23 07:17:04;;;;;;;2.90;0.80;;;;;;;9.76;100.00;97214.16;5006239;28;20046;-64
2023/09/23 07:19:30;;;;;;;1.75;0.70;;;;;;;9.90;100.00;97222.75;5005011;28;20673;-64
2023/09/23 07:21:57;;;;;;;1.27;0.77;;;;;;;9.94;100.00;97223.88;5006403;28;20041;-63
2023/09/23 07:24:27;;;;;;;2.78;0.80;;;;;;;10.04;100.00;97225.91;5005413;28;20046;-63
2023/09/23 07:26:54;;;;;;;4.00;0.93;;;;;;;10.15;100.00;97230.34;5006601;28;20052;-62
2023/09/23 07:29:21;;;;;;;1.70;0.60;;;;;;;10.26;100.00;97233.19;5005530;28;20406;-63
2023/09/23 07:31:48;;;;;;;2.15;1.00;;;;;;;10.28;100.00;97231.84;5005160;28;20121;-64
2023/09/23 07:34:14;;;;;;;2.65;1.00;;;;;;;10.27;100.00;97237.50;5005347;28;20057;-63
2023/09/23 07:36:42;;;;;;;1.95;0.65;;;;;;;10.15;100.00;97235.75;5005855;28;20603;-63
2023/09/23 07:39:12;;;;;;;4.35;0.90;;;;;;;10.15;100.00;97238.44;5005764;28;20050;-63
2023/09/23 07:41:39;;;;;;;4.72;0.90;;;;;;;10.20;100.00;97236.88;5004813;28;20045;-63
2023/09/23 07:44:06;;;;;;;3.28;0.80;;;;;;;10.30;100.00;97244.31;5007660;28;20038;-63
2023/09/23 07:46:32;;;;;;;1.33;0.70;;;;;;;10.38;100.00;97249.25;5004542;28;20050;-63
2023/09/23 07:48:59;;;;;;;1.88;0.77;;;;;;;10.38;100.00;97252.81;5002480;28;20117;-59
2023/09/23 07:51:25;;;;;;;1.35;0.70;;;;;;;10.52;100.00;97263.25;5004214;28;20489;-60
2023/09/23 07:53:52;;;;;;;2.00;0.70;;;;;;;10.62;100.00;97263.34;5004606;28;20049;-62
2023/09/23 07:56:18;;;;;;;2.50;0.77;;;;;;;10.71;100.00;97265.59;5005234;28;20104;-61
2023/09/23 07:58:45;;;;;;;2.92;0.77;;;;;;;10.86;100.00;97273.06;5004850;28;20108;-63
2023/09/23 08:01:12;;;;;;;1.90;0.70;;;;;;;10.96;100.00;97280.47;5005574;28;20053;-62
2023/09/23 08:03:38;;;;;;;1.92;0.60;;;;;;;11.10;100.00;97279.00;5005937;28;20061;-62
2023/09/23 08:06:05;;;;;;;1.65;0.70;;;;;;;11.19;100.00;97282.03;5005826;28;20057;-62
2023/09/23 08:08:31;;;;;;;2.25;0.95;;;;;;;11.30;100.00;97281.06;5004129;28;20076;-62
2023/09/23 08:10:58;;;;;;;2.63;0.73;;;;;;;11.43;100.00;97282.50;5005762;28;20053;-62
2023/09/23 08:13:26;;;;;;;1.85;0.60;;;;;;;11.51;100.00;97293.94;5004483;28;20038;-62
2023/09/23 08:15:58;;;;;;;1.38;0.63;;;;;;;11.55;100.00;97292.34;5005303;28;20524;-62
2023/09/23 08:18:25;;;;;;;1.70;0.80;;;;;;;11.66;100.00;97290.53;5004213;28;20041;-62
2023/09/23 08:20:59;;;;;;;2.97;1.05;;;;;;;11.78;100.00;97291.16;5003914;28;20038;-63
2023/09/23 08:23:26;;;;;;;1.65;0.70;;;;;;;11.84;100.00;97300.94;5004251;28;20625;-63
2023/09/23 08:25:53;;;;;;;2.50;0.80;;;;;;;11.86;100.00;97302.59;5004456;28;20118;-62
2023/09/23 08:28:20;;;;;;;4.60;0.90;;;;;;;11.86;100.00;97308.03;5005034;28;20683;-63
2023/09/23 08:30:49;;;;;;;0.95;0.57;;;;;;;12.02;100.00;97309.72;5003764;28;20045;-62
2023/09/23 08:33:16;;;;;;;2.38;0.90;;;;;;;12.13;100.00;97315.25;5004236;28;20045;-63
2023/09/23 08:35:47;;;;;;;4.43;0.75;;;;;;;12.22;100.00;97319.09;5003745;28;20481;-63
2023/09/23 08:38:14;;;;;;;1.98;0.45;;;;;;;12.33;99.66;97317.22;5005112;28;20601;-64
2023/09/23 08:40:43;;;;;;;2.60;0.70;;;;;;;12.48;98.82;97322.75;5002649;28;20457;-63
2023/09/23 08:43:09;;;;;;;2.60;0.80;;;;;;;12.55;97.54;97322.50;5004359;28;20038;-62
2023/09/23 08:45:43;;;;;;;2.58;0.90;;;;;;;12.64;94.97;97321.97;5003798;28;20050;-63
2023/09/23 08:48:12;;;;;;;4.28;1.00;;;;;;;12.72;94.50;97321.47;5003391;28;20049;-63
2023/09/23 08:50:43;;;;;;;1.40;0.60;;;;;;;12.82;89.92;97329.63;5002849;28;20038;-63
2023/09/23 08:53:12;;;;;;;3.03;0.80;;;;;;;12.97;88.02;97328.06;5003365;28;20050;-63
2023/09/23 08:55:39;;;;;;;3.67;0.60;;;;;;;12.99;87.14;97343.00;5004035;28;20046;-62
2023/09/23 08:58:05;;;;;;;1.25;0.50;;;;;;;13.12;89.49;97330.78;5004109;28;20042;-62
2023/09/23 09:00:32;;;;;;;2.70;0.70;;;;;;;13.23;87.97;97328.88;5003581;28;20121;-62
2023/09/23 09:02:58;;;;;;;2.05;0.63;;;;;;;13.29;86.44;97332.44;5003335;28;20034;-63
2023/09/23 09:05:38;;;;;;;3.03;0.80;;;;;;;13.35;86.36;97328.63;5002998;28;20202;-63
2023/09/23 09:08:06;;;;;;;2.50;0.50;;;;;;;13.40;86.56;97325.09;5003605;28;20041;-63
2023/09/23 09:10:32;;;;;;;1.27;0.55;;;;;;;13.49;84.91;97326.22;5002940;28;20386;-63
2023/09/23 09:13:03;;;;;;;2.58;0.90;;;;;;;13.63;85.04;97336.53;5003862;28;20042;-62
2023/09/23 09:15:30;;;;;;;2.23;0.60;;;;;;;13.68;80.16;97338.44;5000381;28;20048;-62
2023/09/23 09:17:58;;;;;;;1.65;0.40;;;;;;;13.71;80.39;97336.00;5004791;28;20048;-63
2023/09/23 09:20:25;;;;;;;2.55;0.57;;;;;;;13.71;78.03;97335.19;5003283;28;20052;-63
2023/09/23 09:22:52;;;;;;;3.20;0.50;;;;;;;13.75;78.22;97341.72;5002863;28;20038;-62
2023/09/23 09:25:20;;;;;;;1.50;0.70;;;;;;;13.86;81.37;97343.31;5004435;28;20050;-62
2023/09/23 09:27:48;;;;;;;1.50;0.50;;;;;;;13.97;78.65;97337.88;5003039;28;20045;-62
2023/09/23 09:30:14;;;;;;;1.17;0.60;;;;;;;14.05;76.94;97346.28;5003951;28;20720;-62
2023/09/23 09:32:43;;;;;;;3.55;0.82;;;;;;;14.17;77.34;97346.00;5001982;28;20540;-63
2023/09/23 09:35:15;;;;;;;2.17;0.80;;;;;;;14.28;77.61;97345.97;5003160;28;20052;-65
2023/09/23 09:37:46;;;;;;;2.45;0.57;;;;;;;14.28;77.78;97348.69;5003158;28;20041;-67
2023/09/23 09:40:17;;;;;;;4.68;1.00;;;;;;;14.57;77.68;97340.69;5003817;28;20045;-61
2023/09/23 09:42:54;;;;;;;1.88;0.60;;;;;;;14.73;75.56;97335.16;5003988;28;20116;-62
2023/09/23 09:45:22;;;;;;;1.25;0.35;;;;;;;14.86;76.01;97330.25;5001349;28;20704;-62
2023/09/23 09:47:53;;;;;;;2.72;0.70;;;;;;;14.81;74.58;97331.91;5001988;28;20727;-62
2023/09/23 09:50:22;;;;;;;1.27;0.50;;;;;;;14.89;74.03;97332.41;5002403;28;20049;-63
2023/09/23 09:52:49;;;;;;;2.53;0.70;;;;;;;14.86;74.17;97330.25;5002085;28;20074;-62
2023/09/23 09:55:19;;;;;;;4.28;0.70;;;;;;;14.79;73.39;97336.00;4983786;28;20046;-63
2023/09/23 09:57:47;;;;;;;2.67;0.70;;;;;;;14.86;71.58;97341.97;5002198;28;20130;-61
2023/09/23 10:00:35;;;;;;;3.33;0.65;;;;;;;14.86;70.02;97343.88;5002624;28;20580;-64
2023/09/23 10:03:06;;;;;;;2.75;0.52;;;;;;;14.76;70.73;97341.97;4998703;28;20038;-63
2023/09/23 10:05:35;;;;;;;1.85;0.55;;;;;;;14.66;71.55;97338.19;5000042;28;20041;-62
2023/09/23 10:08:15;;;;;;;2.15;0.82;;;;;;;14.67;73.09;97339.81;5002821;28;20501;-62
2023/09/23 10:10:47;;;;;;;5.03;0.90;;;;;;;14.83;73.52;97335.13;4999128;28;20653;-62
2023/09/23 10:13:24;;;;;;;2.95;0.55;;;;;;;15.01;73.29;97338.34;5001749;28;20520;-63
2023/09/23 10:15:51;;;;;;;3.35;0.82;;;;;;;15.17;68.43;97341.78;5002967;28;20042;-62
2023/09/23 10:18:19;;;;;;;2.13;0.70;;;;;;;15.03;69.24;97343.47;5002824;28;20053;-63
2023/09/23 10:20:56;;;;;;;2.00;0.70;;;;;;;14.82;69.47;97344.41;5002821;28;20062;-62
2023/09/23 10:23:22;;;;;;;3.65;0.60;;;;;;;14.91;68.38;97352.00;5003471;28;20037;-63
2023/09/23 10:25:51;;;;;;;2.42;0.60;;;;;;;14.85;67.27;97339.50;5002806;28;20046;-64
2023/09/23 10:28:21;;;;;;;1.48;0.45;;;;;;;15.11;68.02;97351.06;5003551;28;20113;-62
2023/09/23 10:31:03;;;;;;;1.95;0.60;;;;;;;15.50;67.40;97354.09;5002303;28;20099;-62
2023/09/23 10:33:31;;;;;;;3.55;0.57;;;;;;;15.78;66.60;97343.50;5003215;28;20034;-63
2023/09/23 10:35:58;;;;;;;4.05;0.82;;;;;;;15.67;65.63;97349.03;5002557;28;20034;-64
2023/09/23 10:38:34;;;;;;;1.60;0.60;;;;;;;15.64;66.27;97335.97;5007825;28;20418;-63
2023/09/23 10:41:02;;;;;;;4.60;0.88;;;;;;;15.78;66.12;97332.56;5002758;28;20040;-62
2023/09/23 10:43:29;;;;;;;2.40;0.80;;;;;;;15.85;66.42;97335.78;5008182;28;20048;-62
2023/09/23 10:45:59;;;;;;;3.55;0.82;;;;;;;15.88;65.43;97337.94;5002259;28;20563;-62
2023/09/23 10:48:26;;;;;;;2.63;0.45;;;;;;;15.96;65.50;97342.78;5002339;28;20050;-64
2023/09/23 10:50:52;;;;;;;4.05;0.85;;;;;;;15.67;64.34;97345.50;5002195;28;20052;-62
2023/09/23 10:53:21;;;;;;;2.20;0.60;;;;;;;15.70;63.98;97339.47;5002057;28;20049;-62
2023/09/23 10:55:52;;;;;;;3.53;0.70;;;;;;;15.79;65.67;97342.38;5002577;28;20049;-63
2023/09/23 10:58:18;;;;;;;1.05;0.47;;;;;;;15.86;64.75;97340.94;5001949;28;20417;-62
2023/09/23 11:00:46;;;;;;;2.55;1.17;;;;;;;15.79;65.28;97356.88;5002169;28;20505;-60
2023/09/23 11:03:18;;;;;;;2.72;0.65;;;;;;;15.93;65.20;97354.28;5005500;28;20045;-62
2023/09/23 11:05:46;;;;;;;3.58;0.55;;;;;;;16.01;64.19;97362.97;5000784;28;20046;-62
2023/09/23 11:08:16;;;;;;;3.03;1.10;;;;;;;16.12;64.10;97359.88;5002798;28;20048;-62
2023/09/23 11:10:44;;;;;;;2.55;0.60;;;;;;;16.22;60.11;97358.13;5001243;28;20497;-61
2023/09/23 11:13:13;;;;;;;1.17;0.40;;;;;;;16.25;58.80;97347.44;5002954;28;20049;-62
2023/09/23 11:15:43;;;;;;;2.78;0.90;;;;;;;16.26;58.98;97348.25;5005147;28;20049;-61
2023/09/23 11:18:13;;;;;;;0.85;0.30;;;;;;;16.44;57.63;97356.78;5006623;28;20034;-62
2023/09/23 11:20:42;;;;;;;1.35;0.43;;;;;;;16.44;56.85;97354.84;5005591;28;20038;-61
2023/09/23 11:23:10;;;;;;;1.67;0.60;;;;;;;16.41;55.88;97360.94;5005853;28;20049;-61
2023/09/23 11:25:46;;;;;;;3.25;1.20;;;;;;;16.33;57.00;97359.63;5005322;28;20046;-60
2023/09/23 11:28:19;;;;;;;2.90;0.95;;;;;;;16.17;57.42;97356.25;5006152;28;20046;-61
2023/09/23 11:30:47;;;;;;;3.00;1.17;;;;;;;15.88;57.86;97362.50;5005597;28;20092;-60
2023/09/23 11:33:14;;;;;;;2.92;0.90;;;;;;;15.92;58.79;97368.22;5006399;28;20394;-60
2023/09/23 11:35:42;;;;;;;1.70;0.60;;;;;;;15.97;60.46;97357.28;5005459;28;20069;-61
2023/09/23 11:38:10;;;;;;;1.80;0.50;;;;;;;15.91;60.61;97370.13;5005633;28;20060;-62